Onondaga, Michigan
Current Conditions -  °F | °C
As of 2:52 AM on Saturday 25 Oct 2014 (Local Time) from KTEW Reporting Station
Haze Haze  
Wind Chill: 44°   Ceiling: 700
Heat Index: 44°   Visibility: 1.5mi
Dew Point: 43°   Wind: 0mph
Humidity: 97%   Direction: NA
Pressure: 29.91"   Gusts: NA
Location:  42.44°N, 84.56°W
Report Text: KTEW 250652Z AUTO 00000KT 1 1/2SM BR VV007 07/06 A2991 RMK AO2 T00660061
Loading
Personal Weather Stations






























Interactive Weather Map New forecast layout! Learn more

10-Day Weather Forecast

Advertisements
Track Severe Weather on mobile